sensor_id;sensor_type;location;lat;lon;timestamp;temperature;humidity
71142;DHT22;58808;59.366;17.970;2022-12-24T00:01:08;-3.80;99.90
71142;DHT22;58808;59.366;17.970;2022-12-24T00:03:36;-3.80;99.90
71142;DHT22;58808;59.366;17.970;2022-12-24T00:06:06;-3.80;99.90
71142;DHT22;58808;59.366;17.970;2022-12-24T00:08:33;-3.80;99.90
71142;DHT22;58808;59.366;17.970;2022-12-24T00:10:59;-3.80;99.90
71142;DHT22;58808;59.366;17.970;2022-12-24T00:13:24;-3.80;99.90
71142;DHT22;58808;59.366;17.970;2022-12-24T00:15:50;-3.90;99.90
71142;DHT22;58808;59.366;17.970;2022-12-24T00:18:16;-3.80;99.90
71142;DHT22;58808;59.366;17.970;2022-12-24T00:20:48;-3.80;99.90
71142;DHT22;58808;59.366;17.970;2022-12-24T00:23:14;-3.80;99.90
71142;DHT22;58808;59.366;17.970;2022-12-24T00:25:40;-3.80;99.90
71142;DHT22;58808;59.366;17.970;2022-12-24T00:28:06;-3.80;99.90
71142;DHT22;58808;59.366;17.970;2022-12-24T00:30:32;-3.80;99.90
71142;DHT22;58808;59.366;17.970;2022-12-24T00:32:57;-3.90;99.90
71142;DHT22;58808;59.366;17.970;2022-12-24T00:35:23;-3.90;99.90
71142;DHT22;58808;59.366;17.970;2022-12-24T00:37:50;-3.80;99.90
71142;DHT22;58808;59.366;17.970;2022-12-24T00:40:16;-3.80;99.90
71142;DHT22;58808;59.366;17.970;2022-12-24T00:42:42;-3.80;99.90
71142;DHT22;58808;59.366;17.970;2022-12-24T00:45:09;-3.80;99.90
71142;DHT22;58808;59.366;17.970;2022-12-24T00:47:35;-3.80;99.90
71142;DHT22;58808;59.366;17.970;2022-12-24T00:50:01;-3.80;99.90
71142;DHT22;58808;59.366;17.970;2022-12-24T00:52:27;-3.80;99.90
71142;DHT22;58808;59.366;17.970;2022-12-24T00:54:53;-3.80;99.90
71142;DHT22;58808;59.366;17.970;2022-12-24T00:57:18;-3.80;99.90
71142;DHT22;58808;59.366;17.970;2022-12-24T00:59:44;-3.80;99.90
71142;DHT22;58808;59.366;17.970;2022-12-24T01:02:10;-3.80;99.90
71142;DHT22;58808;59.366;17.970;2022-12-24T01:04:35;-3.80;99.90
71142;DHT22;58808;59.366;17.970;2022-12-24T01:07:20;-3.80;99.90
71142;DHT22;58808;59.366;17.970;2022-12-24T01:09:45;-3.80;99.90
71142;DHT22;58808;59.366;17.970;2022-12-24T01:12:11;-3.80;99.90
71142;DHT22;58808;59.366;17.970;2022-12-24T01:14:37;-3.90;99.90
71142;DHT22;58808;59.366;17.970;2022-12-24T01:17:03;-3.90;99.90
71142;DHT22;58808;59.366;17.970;2022-12-24T01:19:29;-3.90;99.90
71142;DHT22;58808;59.366;17.970;2022-12-24T01:21:55;-3.90;99.90
71142;DHT22;58808;59.366;17.970;2022-12-24T01:24:20;-3.90;99.90
71142;DHT22;58808;59.366;17.970;2022-12-24T01:26:46;-3.90;99.90
71142;DHT22;58808;59.366;17.970;2022-12-24T01:29:12;-3.90;99.90
71142;DHT22;58808;59.366;17.970;2022-12-24T01:31:38;-3.90;99.90
71142;DHT22;58808;59.366;17.970;2022-12-24T01:34:03;-3.90;99.90
71142;DHT22;58808;59.366;17.970;2022-12-24T01:36:29;-3.90;99.90
71142;DHT22;58808;59.366;17.970;2022-12-24T01:38:55;-3.90;99.90
71142;DHT22;58808;59.366;17.970;2022-12-24T01:41:24;-3.90;99.90
71142;DHT22;58808;59.366;17.970;2022-12-24T01:46:45;-4.00;99.90
71142;DHT22;58808;59.366;17.970;2022-12-24T01:49:13;-4.00;99.90
71142;DHT22;58808;59.366;17.970;2022-12-24T01:51:46;-4.00;99.90
71142;DHT22;58808;59.366;17.970;2022-12-24T01:56:51;-4.00;99.90
71142;DHT22;58808;59.366;17.970;2022-12-24T01:59:19;-4.10;99.90
71142;DHT22;58808;59.366;17.970;2022-12-24T02:01:47;-4.20;99.90
71142;DHT22;58808;59.366;17.970;2022-12-24T02:04:43;-4.20;99.90
71142;DHT22;58808;59.366;17.970;2022-12-24T02:07:11;-4.30;99.90
71142;DHT22;58808;59.366;17.970;2022-12-24T02:09:38;-4.30;99.90
71142;DHT22;58808;59.366;17.970;2022-12-24T02:12:05;-4.30;99.90
71142;DHT22;58808;59.366;17.970;2022-12-24T02:14:31;-4.30;99.90
71142;DHT22;58808;59.366;17.970;2022-12-24T02:17:03;-4.40;99.90
71142;DHT22;58808;59.366;17.970;2022-12-24T02:22:30;-4.30;99.90
71142;DHT22;58808;59.366;17.970;2022-12-24T02:27:59;-4.40;99.90
71142;DHT22;58808;59.366;17.970;2022-12-24T02:30:33;-4.40;99.90
71142;DHT22;58808;59.366;17.970;2022-12-24T02:35:58;-4.50;99.90
71142;DHT22;58808;59.366;17.970;2022-12-24T02:38:53;-4.50;99.90
71142;DHT22;58808;59.366;17.970;2022-12-24T02:41:29;-4.40;99.90
71142;DHT22;58808;59.366;17.970;2022-12-24T02:44:17;-4.40;99.90
71142;DHT22;58808;59.366;17.970;2022-12-24T02:46:45;-4.40;99.90
71142;DHT22;58808;59.366;17.970;2022-12-24T02:49:12;-4.40;99.90
71142;DHT22;58808;59.366;17.970;2022-12-24T02:51:38;-4.40;99.90
71142;DHT22;58808;59.366;17.970;2022-12-24T02:54:04;-4.40;99.90
71142;DHT22;58808;59.366;17.970;2022-12-24T03:05:00;-4.20;99.90
71142;DHT22;58808;59.366;17.970;2022-12-24T03:07:47;-4.40;99.90
71142;DHT22;58808;59.366;17.970;2022-12-24T03:13:14;-4.50;99.90
71142;DHT22;58808;59.366;17.970;2022-12-24T03:15:41;-4.40;99.90
71142;DHT22;58808;59.366;17.970;2022-12-24T03:18:09;-4.40;99.90
71142;DHT22;58808;59.366;17.970;2022-12-24T03:20:41;-4.40;99.90
71142;DHT22;58808;59.366;17.970;2022-12-24T03:23:08;-4.30;99.90
71142;DHT22;58808;59.366;17.970;2022-12-24T03:25:38;-4.30;99.90
71142;DHT22;58808;59.366;17.970;2022-12-24T03:28:09;-4.30;99.90
71142;DHT22;58808;59.366;17.970;2022-12-24T03:30:42;-4.30;99.90
71142;DHT22;58808;59.366;17.970;2022-12-24T03:33:09;-4.30;99.90
71142;DHT22;58808;59.366;17.970;2022-12-24T03:35:35;-4.30;99.90
71142;DHT22;58808;59.366;17.970;2022-12-24T03:38:00;-4.30;99.90
71142;DHT22;58808;59.366;17.970;2022-12-24T03:40:26;-4.40;99.90
71142;DHT22;58808;59.366;17.970;2022-12-24T03:42:52;-4.40;99.90
71142;DHT22;58808;59.366;17.970;2022-12-24T03:45:17;-4.40;99.90
71142;DHT22;58808;59.366;17.970;2022-12-24T03:47:43;-4.40;99.90
71142;DHT22;58808;59.366;17.970;2022-12-24T03:50:09;-4.40;99.90
71142;DHT22;58808;59.366;17.970;2022-12-24T03:52:35;-4.40;99.90
71142;DHT22;58808;59.366;17.970;2022-12-24T03:55:01;-4.50;99.90
71142;DHT22;58808;59.366;17.970;2022-12-24T03:57:26;-4.60;99.90
71142;DHT22;58808;59.366;17.970;2022-12-24T03:59:52;-4.70;99.90
71142;DHT22;58808;59.366;17.970;2022-12-24T04:02:18;-4.70;99.90
71142;DHT22;58808;59.366;17.970;2022-12-24T04:04:43;-4.60;99.90
71142;DHT22;58808;59.366;17.970;2022-12-24T04:07:09;-4.60;99.90
71142;DHT22;58808;59.366;17.970;2022-12-24T04:09:35;-4.60;99.90
71142;DHT22;58808;59.366;17.970;2022-12-24T04:12:01;-4.50;99.90
71142;DHT22;58808;59.366;17.970;2022-12-24T04:14:27;-4.50;99.90
71142;DHT22;58808;59.366;17.970;2022-12-24T04:16:53;-4.50;99.90
71142;DHT22;58808;59.366;17.970;2022-12-24T04:19:18;-4.50;99.90
71142;DHT22;58808;59.366;17.970;2022-12-24T04:21:44;-4.50;99.90
71142;DHT22;58808;59.366;17.970;2022-12-24T04:24:10;-4.50;99.90
71142;DHT22;58808;59.366;17.970;2022-12-24T04:26:35;-4.40;99.90
71142;DHT22;58808;59.366;17.970;2022-12-24T04:29:01;-4.40;99.90
71142;DHT22;58808;59.366;17.970;2022-12-24T04:31:27;-4.50;99.90
71142;DHT22;58808;59.366;17.970;2022-12-24T04:33:52;-4.50;99.90
71142;DHT22;58808;59.366;17.970;2022-12-24T04:36:19;-4.50;99.90
71142;DHT22;58808;59.366;17.970;2022-12-24T04:38:45;-4.40;99.90
71142;DHT22;58808;59.366;17.970;2022-12-24T04:41:17;-4.50;99.90
71142;DHT22;58808;59.366;17.970;2022-12-24T04:43:43;-4.50;99.90
71142;DHT22;58808;59.366;17.970;2022-12-24T04:46:11;-4.50;99.90
71142;DHT22;58808;59.366;17.970;2022-12-24T04:48:39;-4.50;99.90
71142;DHT22;58808;59.366;17.970;2022-12-24T04:51:06;-4.50;99.90
71142;DHT22;58808;59.366;17.970;2022-12-24T04:53:32;-4.40;99.90
71142;DHT22;58808;59.366;17.970;2022-12-24T04:55:58;-4.50;99.90
71142;DHT22;58808;59.366;17.970;2022-12-24T04:58:24;-4.40;99.90
71142;DHT22;58808;59.366;17.970;2022-12-24T05:00:50;-4.40;99.90
71142;DHT22;58808;59.366;17.970;2022-12-24T05:03:16;-4.50;99.90
71142;DHT22;58808;59.366;17.970;2022-12-24T05:05:42;-4.50;99.90
71142;DHT22;58808;59.366;17.970;2022-12-24T05:08:07;-4.40;99.90
71142;DHT22;58808;59.366;17.970;2022-12-24T05:10:33;-4.40;99.90
71142;DHT22;58808;59.366;17.970;2022-12-24T05:12:59;-4.40;99.90
71142;DHT22;58808;59.366;17.970;2022-12-24T05:15:25;-4.40;99.90
71142;DHT22;58808;59.366;17.970;2022-12-24T05:17:50;-4.50;99.90
71142;DHT22;58808;59.366;17.970;2022-12-24T05:20:16;-4.60;99.90
71142;DHT22;58808;59.366;17.970;2022-12-24T05:22:42;-4.60;99.90
71142;DHT22;58808;59.366;17.970;2022-12-24T05:25:32;-4.70;99.90
71142;DHT22;58808;59.366;17.970;2022-12-24T05:28:18;-4.70;99.90
71142;DHT22;58808;59.366;17.970;2022-12-24T05:30:44;-4.80;99.90
71142;DHT22;58808;59.366;17.970;2022-12-24T05:33:09;-4.90;99.90
71142;DHT22;58808;59.366;17.970;2022-12-24T05:35:35;-4.80;99.90
71142;DHT22;58808;59.366;17.970;2022-12-24T05:38:01;-4.80;99.90
71142;DHT22;58808;59.366;17.970;2022-12-24T05:40:26;-4.80;99.90
71142;DHT22;58808;59.366;17.970;2022-12-24T05:42:52;-4.80;99.90
71142;DHT22;58808;59.366;17.970;2022-12-24T05:45:18;-4.80;99.90
71142;DHT22;58808;59.366;17.970;2022-12-24T05:47:43;-4.80;99.90
71142;DHT22;58808;59.366;17.970;2022-12-24T05:50:10;-4.70;99.90
71142;DHT22;58808;59.366;17.970;2022-12-24T05:52:35;-4.70;99.90
71142;DHT22;58808;59.366;17.970;2022-12-24T05:55:01;-4.80;99.90
71142;DHT22;58808;59.366;17.970;2022-12-24T05:57:27;-4.80;99.90
71142;DHT22;58808;59.366;17.970;2022-12-24T05:59:52;-4.70;99.90
71142;DHT22;58808;59.366;17.970;2022-12-24T06:02:18;-4.80;99.90
71142;DHT22;58808;59.366;17.970;2022-12-24T06:04:44;-4.80;99.90
71142;DHT22;58808;59.366;17.970;2022-12-24T06:07:09;-4.80;99.90
71142;DHT22;58808;59.366;17.970;2022-12-24T06:09:35;-4.80;99.90
71142;DHT22;58808;59.366;17.970;2022-12-24T06:12:01;-4.70;99.90
71142;DHT22;58808;59.366;17.970;2022-12-24T06:14:26;-4.70;99.90
71142;DHT22;58808;59.366;17.970;2022-12-24T06:16:52;-4.70;99.90
71142;DHT22;58808;59.366;17.970;2022-12-24T06:19:18;-4.70;99.90
71142;DHT22;58808;59.366;17.970;2022-12-24T06:21:43;-4.70;99.90
71142;DHT22;58808;59.366;17.970;2022-12-24T06:24:09;-4.70;99.90
71142;DHT22;58808;59.366;17.970;2022-12-24T06:26:35;-4.70;99.90
71142;DHT22;58808;59.366;17.970;2022-12-24T06:29:00;-4.70;99.90
71142;DHT22;58808;59.366;17.970;2022-12-24T06:31:26;-4.70;99.90
71142;DHT22;58808;59.366;17.970;2022-12-24T06:33:52;-4.80;99.90
71142;DHT22;58808;59.366;17.970;2022-12-24T06:36:21;-4.80;99.90
71142;DHT22;58808;59.366;17.970;2022-12-24T06:38:47;-4.80;99.90
71142;DHT22;58808;59.366;17.970;2022-12-24T06:41:14;-4.70;99.90
71142;DHT22;58808;59.366;17.970;2022-12-24T06:43:43;-4.70;99.90
71142;DHT22;58808;59.366;17.970;2022-12-24T06:46:09;-4.70;99.90
71142;DHT22;58808;59.366;17.970;2022-12-24T06:48:35;-4.70;99.90
71142;DHT22;58808;59.366;17.970;2022-12-24T06:51:02;-4.70;99.90
71142;DHT22;58808;59.366;17.970;2022-12-24T06:53:28;-4.80;99.90
71142;DHT22;58808;59.366;17.970;2022-12-24T06:56:03;-4.80;99.90
71142;DHT22;58808;59.366;17.970;2022-12-24T06:58:30;-4.80;99.90
71142;DHT22;58808;59.366;17.970;2022-12-24T07:00:55;-4.80;99.90
71142;DHT22;58808;59.366;17.970;2022-12-24T07:03:21;-4.90;99.90
71142;DHT22;58808;59.366;17.970;2022-12-24T07:05:47;-4.90;99.90
71142;DHT22;58808;59.366;17.970;2022-12-24T07:08:12;-4.90;99.90
71142;DHT22;58808;59.366;17.970;2022-12-24T07:10:38;-4.90;99.90
71142;DHT22;58808;59.366;17.970;2022-12-24T07:13:04;-4.90;99.90
71142;DHT22;58808;59.366;17.970;2022-12-24T07:15:29;-4.90;99.90
71142;DHT22;58808;59.366;17.970;2022-12-24T07:17:55;-4.90;99.90
71142;DHT22;58808;59.366;17.970;2022-12-24T07:20:21;-4.90;99.90
71142;DHT22;58808;59.366;17.970;2022-12-24T07:22:46;-4.90;99.90
71142;DHT22;58808;59.366;17.970;2022-12-24T07:25:12;-5.00;99.90
71142;DHT22;58808;59.366;17.970;2022-12-24T07:27:38;-5.00;99.90
71142;DHT22;58808;59.366;17.970;2022-12-24T07:30:04;-5.00;99.90
71142;DHT22;58808;59.366;17.970;2022-12-24T07:32:30;-5.00;99.90
71142;DHT22;58808;59.366;17.970;2022-12-24T07:34:56;-5.00;99.90
71142;DHT22;58808;59.366;17.970;2022-12-24T07:37:22;-5.00;99.90
71142;DHT22;58808;59.366;17.970;2022-12-24T07:39:47;-4.90;99.90
71142;DHT22;58808;59.366;17.970;2022-12-24T07:42:13;-4.90;99.90
71142;DHT22;58808;59.366;17.970;2022-12-24T07:44:39;-4.80;99.90
71142;DHT22;58808;59.366;17.970;2022-12-24T07:47:04;-4.80;99.90
71142;DHT22;58808;59.366;17.970;2022-12-24T07:49:30;-4.70;99.90
71142;DHT22;58808;59.366;17.970;2022-12-24T07:51:56;-4.70;99.90
71142;DHT22;58808;59.366;17.970;2022-12-24T07:54:22;-4.70;99.90
71142;DHT22;58808;59.366;17.970;2022-12-24T07:56:48;-4.70;99.90
71142;DHT22;58808;59.366;17.970;2022-12-24T07:59:13;-4.70;99.90
71142;DHT22;58808;59.366;17.970;2022-12-24T08:01:39;-4.70;99.90
71142;DHT22;58808;59.366;17.970;2022-12-24T08:04:05;-4.80;99.90
71142;DHT22;58808;59.366;17.970;2022-12-24T08:06:31;-4.80;99.90
71142;DHT22;58808;59.366;17.970;2022-12-24T08:08:57;-4.90;99.90
71142;DHT22;58808;59.366;17.970;2022-12-24T08:11:22;-4.90;99.90
71142;DHT22;58808;59.366;17.970;2022-12-24T08:13:48;-4.90;99.90
71142;DHT22;58808;59.366;17.970;2022-12-24T08:16:14;-4.80;99.90
71142;DHT22;58808;59.366;17.970;2022-12-24T08:18:39;-4.80;99.90
71142;DHT22;58808;59.366;17.970;2022-12-24T08:21:08;-4.80;99.90
71142;DHT22;58808;59.366;17.970;2022-12-24T08:23:35;-4.70;99.90
71142;DHT22;58808;59.366;17.970;2022-12-24T08:26:01;-4.70;99.90
71142;DHT22;58808;59.366;17.970;2022-12-24T08:28:27;-4.70;99.90
71142;DHT22;58808;59.366;17.970;2022-12-24T08:30:53;-4.70;99.90
71142;DHT22;58808;59.366;17.970;2022-12-24T08:33:19;-4.70;99.90
71142;DHT22;58808;59.366;17.970;2022-12-24T08:35:52;-4.60;99.90
71142;DHT22;58808;59.366;17.970;2022-12-24T08:38:19;-4.60;99.90
71142;DHT22;58808;59.366;17.970;2022-12-24T08:40:46;-4.60;99.90
71142;DHT22;58808;59.366;17.970;2022-12-24T08:43:14;-4.60;99.90
71142;DHT22;58808;59.366;17.970;2022-12-24T08:45:40;-4.60;99.90
71142;DHT22;58808;59.366;17.970;2022-12-24T08:48:07;-4.50;99.90
71142;DHT22;58808;59.366;17.970;2022-12-24T08:50:34;-4.50;99.90
71142;DHT22;58808;59.366;17.970;2022-12-24T08:52:59;-4.50;99.90
71142;DHT22;58808;59.366;17.970;2022-12-24T08:55:25;-4.50;99.90
71142;DHT22;58808;59.366;17.970;2022-12-24T08:57:51;-4.50;99.90
71142;DHT22;58808;59.366;17.970;2022-12-24T09:00:17;-4.50;99.90
71142;DHT22;58808;59.366;17.970;2022-12-24T09:02:43;-4.50;99.90
71142;DHT22;58808;59.366;17.970;2022-12-24T09:05:09;-4.50;99.90
71142;DHT22;58808;59.366;17.970;2022-12-24T09:07:35;-4.50;99.90
71142;DHT22;58808;59.366;17.970;2022-12-24T09:10:01;-4.50;99.90
71142;DHT22;58808;59.366;17.970;2022-12-24T09:12:27;-4.40;99.90
71142;DHT22;58808;59.366;17.970;2022-12-24T09:14:52;-4.40;99.90
71142;DHT22;58808;59.366;17.970;2022-12-24T09:17:19;-4.40;99.90
71142;DHT22;58808;59.366;17.970;2022-12-24T09:19:45;-4.40;99.90
71142;DHT22;58808;59.366;17.970;2022-12-24T09:22:11;-4.40;99.90
71142;DHT22;58808;59.366;17.970;2022-12-24T09:24:37;-4.40;99.90
71142;DHT22;58808;59.366;17.970;2022-12-24T09:27:03;-4.30;99.90
71142;DHT22;58808;59.366;17.970;2022-12-24T09:29:30;-4.30;99.90
71142;DHT22;58808;59.366;17.970;2022-12-24T09:31:56;-4.20;99.90
71142;DHT22;58808;59.366;17.970;2022-12-24T09:34:23;-4.20;99.90
71142;DHT22;58808;59.366;17.970;2022-12-24T09:36:49;-4.20;99.90
71142;DHT22;58808;59.366;17.970;2022-12-24T09:39:16;-4.10;99.90
71142;DHT22;58808;59.366;17.970;2022-12-24T09:44:58;-4.10;99.90
71142;DHT22;58808;59.366;17.970;2022-12-24T09:47:58;-4.00;99.90
71142;DHT22;58808;59.366;17.970;2022-12-24T09:50:39;-4.00;99.90
71142;DHT22;58808;59.366;17.970;2022-12-24T09:53:18;-4.00;99.90
71142;DHT22;58808;59.366;17.970;2022-12-24T09:55:51;-3.90;99.90
71142;DHT22;58808;59.366;17.970;2022-12-24T09:58:39;-3.90;99.90
71142;DHT22;58808;59.366;17.970;2022-12-24T10:01:06;-3.80;99.90
71142;DHT22;58808;59.366;17.970;2022-12-24T10:03:35;-3.80;99.90
71142;DHT22;58808;59.366;17.970;2022-12-24T10:09:17;-3.80;99.90
71142;DHT22;58808;59.366;17.970;2022-12-24T10:11:59;-3.70;99.90
71142;DHT22;58808;59.366;17.970;2022-12-24T10:28:56;-3.40;99.90
71142;DHT22;58808;59.366;17.970;2022-12-24T10:31:25;-3.50;99.90
71142;DHT22;58808;59.366;17.970;2022-12-24T10:34:04;-3.40;99.90
71142;DHT22;58808;59.366;17.970;2022-12-24T10:36:31;-3.40;99.90
71142;DHT22;58808;59.366;17.970;2022-12-24T10:38:57;-3.40;99.90
71142;DHT22;58808;59.366;17.970;2022-12-24T10:41:27;-3.40;99.90
71142;DHT22;58808;59.366;17.970;2022-12-24T10:43:54;-3.40;99.90
71142;DHT22;58808;59.366;17.970;2022-12-24T10:46:34;-3.40;99.90
71142;DHT22;58808;59.366;17.970;2022-12-24T10:49:02;-3.40;99.90
71142;DHT22;58808;59.366;17.970;2022-12-24T10:51:39;-3.40;99.90
71142;DHT22;58808;59.366;17.970;2022-12-24T10:54:11;-3.40;99.90
71142;DHT22;58808;59.366;17.970;2022-12-24T10:57:00;-3.40;99.90
71142;DHT22;58808;59.366;17.970;2022-12-24T10:59:48;-3.30;99.90
71142;DHT22;58808;59.366;17.970;2022-12-24T11:02:34;-3.30;99.90
71142;DHT22;58808;59.366;17.970;2022-12-24T11:05:01;-3.30;99.90
71142;DHT22;58808;59.366;17.970;2022-12-24T11:07:29;-3.30;99.90
71142;DHT22;58808;59.366;17.970;2022-12-24T11:10:04;-3.30;99.90
71142;DHT22;58808;59.366;17.970;2022-12-24T11:12:34;-3.30;99.90
71142;DHT22;58808;59.366;17.970;2022-12-24T11:17:30;-3.20;99.90
71142;DHT22;58808;59.366;17.970;2022-12-24T11:19:57;-3.10;99.90
71142;DHT22;58808;59.366;17.970;2022-12-24T11:22:29;-3.10;99.90
71142;DHT22;58808;59.366;17.970;2022-12-24T11:25:17;-3.00;99.90
71142;DHT22;58808;59.366;17.970;2022-12-24T11:27:46;-3.00;99.90
71142;DHT22;58808;59.366;17.970;2022-12-24T11:32:40;-3.00;99.90
71142;DHT22;58808;59.366;17.970;2022-12-24T11:35:29;-3.00;99.90
71142;DHT22;58808;59.366;17.970;2022-12-24T11:43:00;-3.00;99.90
71142;DHT22;58808;59.366;17.970;2022-12-24T11:45:29;-3.00;99.90
71142;DHT22;58808;59.366;17.970;2022-12-24T11:47:56;-3.10;99.90
71142;DHT22;58808;59.366;17.970;2022-12-24T11:50:34;-3.10;99.90
71142;DHT22;58808;59.366;17.970;2022-12-24T11:55:48;-3.10;99.90
71142;DHT22;58808;59.366;17.970;2022-12-24T12:01:18;-3.10;99.90
71142;DHT22;58808;59.366;17.970;2022-12-24T12:03:49;-3.10;99.90
71142;DHT22;58808;59.366;17.970;2022-12-24T12:06:39;-3.00;99.90
71142;DHT22;58808;59.366;17.970;2022-12-24T12:09:18;-3.00;99.90
71142;DHT22;58808;59.366;17.970;2022-12-24T12:11:51;-3.00;99.90
71142;DHT22;58808;59.366;17.970;2022-12-24T12:14:26;-3.00;99.90
71142;DHT22;58808;59.366;17.970;2022-12-24T12:20:22;-3.00;99.90
71142;DHT22;58808;59.366;17.970;2022-12-24T12:25:54;-3.10;99.90
71142;DHT22;58808;59.366;17.970;2022-12-24T12:31:14;-3.00;99.90
71142;DHT22;58808;59.366;17.970;2022-12-24T12:33:47;-3.00;99.90
71142;DHT22;58808;59.366;17.970;2022-12-24T12:36:20;-3.10;99.90
71142;DHT22;58808;59.366;17.970;2022-12-24T12:38:47;-3.10;99.90
71142;DHT22;58808;59.366;17.970;2022-12-24T12:49:21;-3.00;99.90
71142;DHT22;58808;59.366;17.970;2022-12-24T12:51:58;-3.00;99.90
71142;DHT22;58808;59.366;17.970;2022-12-24T12:54:42;-3.00;99.90
71142;DHT22;58808;59.366;17.970;2022-12-24T12:57:13;-3.00;99.90
71142;DHT22;58808;59.366;17.970;2022-12-24T13:20:17;-3.10;99.90
71142;DHT22;58808;59.366;17.970;2022-12-24T13:25:41;-3.00;99.90
71142;DHT22;58808;59.366;17.970;2022-12-24T13:30:39;-3.10;99.90
71142;DHT22;58808;59.366;17.970;2022-12-24T13:33:10;-3.10;99.90
71142;DHT22;58808;59.366;17.970;2022-12-24T13:35:38;-3.20;99.90
71142;DHT22;58808;59.366;17.970;2022-12-24T13:40:53;-3.20;99.90
71142;DHT22;58808;59.366;17.970;2022-12-24T13:43:19;-3.20;99.90
71142;DHT22;58808;59.366;17.970;2022-12-24T13:45:50;-3.20;99.90
71142;DHT22;58808;59.366;17.970;2022-12-24T13:48:25;-3.30;99.90
71142;DHT22;58808;59.366;17.970;2022-12-24T13:51:00;-3.30;99.90
71142;DHT22;58808;59.366;17.970;2022-12-24T13:53:46;-3.30;99.90
71142;DHT22;58808;59.366;17.970;2022-12-24T13:58:44;-3.40;99.90
71142;DHT22;58808;59.366;17.970;2022-12-24T14:01:17;-3.40;99.90
71142;DHT22;58808;59.366;17.970;2022-12-24T14:03:45;-3.40;99.90
71142;DHT22;58808;59.366;17.970;2022-12-24T14:06:24;-3.50;99.90
71142;DHT22;58808;59.366;17.970;2022-12-24T14:08:54;-3.50;99.90
71142;DHT22;58808;59.366;17.970;2022-12-24T14:11:25;-3.50;99.90
71142;DHT22;58808;59.366;17.970;2022-12-24T14:14:10;-3.50;99.90
71142;DHT22;58808;59.366;17.970;2022-12-24T14:16:48;-3.60;99.90
71142;DHT22;58808;59.366;17.970;2022-12-24T14:22:29;-3.60;99.90
71142;DHT22;58808;59.366;17.970;2022-12-24T14:25:18;-3.70;99.90
71142;DHT22;58808;59.366;17.970;2022-12-24T14:27:49;-3.70;99.90
71142;DHT22;58808;59.366;17.970;2022-12-24T14:30:22;-3.70;99.90
71142;DHT22;58808;59.366;17.970;2022-12-24T14:32:49;-3.70;99.90
71142;DHT22;58808;59.366;17.970;2022-12-24T14:37:57;-3.80;99.90
71142;DHT22;58808;59.366;17.970;2022-12-24T14:40:32;-3.80;99.90
71142;DHT22;58808;59.366;17.970;2022-12-24T14:46:29;-3.90;99.90
71142;DHT22;58808;59.366;17.970;2022-12-24T14:48:55;-3.80;99.90
71142;DHT22;58808;59.366;17.970;2022-12-24T14:59:54;-3.90;99.90
71142;DHT22;58808;59.366;17.970;2022-12-24T15:07:38;-4.00;99.90
71142;DHT22;58808;59.366;17.970;2022-12-24T15:10:06;-4.00;99.90
71142;DHT22;58808;59.366;17.970;2022-12-24T15:12:41;-4.10;99.90
71142;DHT22;58808;59.366;17.970;2022-12-24T15:15:16;-4.10;99.90
71142;DHT22;58808;59.366;17.970;2022-12-24T15:17:43;-4.10;99.90
71142;DHT22;58808;59.366;17.970;2022-12-24T15:20:21;-4.20;99.90
71142;DHT22;58808;59.366;17.970;2022-12-24T15:22:54;-4.20;99.90
71142;DHT22;58808;59.366;17.970;2022-12-24T15:25:30;-4.20;99.90
71142;DHT22;58808;59.366;17.970;2022-12-24T15:27:57;-4.20;99.90
71142;DHT22;58808;59.366;17.970;2022-12-24T15:30:29;-4.20;99.90
71142;DHT22;58808;59.366;17.970;2022-12-24T15:32:56;-4.20;99.90
71142;DHT22;58808;59.366;17.970;2022-12-24T15:40:52;-4.20;99.90
71142;DHT22;58808;59.366;17.970;2022-12-24T15:43:19;-4.20;99.90
71142;DHT22;58808;59.366;17.970;2022-12-24T15:45:45;-4.20;99.90
71142;DHT22;58808;59.366;17.970;2022-12-24T15:48:18;-4.20;99.90
71142;DHT22;58808;59.366;17.970;2022-12-24T15:50:49;-4.30;99.90
71142;DHT22;58808;59.366;17.970;2022-12-24T15:53:23;-4.30;99.90
71142;DHT22;58808;59.366;17.970;2022-12-24T15:56:35;-4.30;99.90
71142;DHT22;58808;59.366;17.970;2022-12-24T15:59:25;-4.30;99.90
71142;DHT22;58808;59.366;17.970;2022-12-24T16:01:52;-4.30;99.90
71142;DHT22;58808;59.366;17.970;2022-12-24T16:04:23;-4.30;99.90
71142;DHT22;58808;59.366;17.970;2022-12-24T16:07:00;-4.40;99.90
71142;DHT22;58808;59.366;17.970;2022-12-24T16:12:02;-4.30;99.90
71142;DHT22;58808;59.366;17.970;2022-12-24T16:14:28;-4.30;99.90
71142;DHT22;58808;59.366;17.970;2022-12-24T16:16:56;-4.40;99.90
71142;DHT22;58808;59.366;17.970;2022-12-24T16:19:29;-4.30;99.90
71142;DHT22;58808;59.366;17.970;2022-12-24T16:21:58;-4.40;99.90
71142;DHT22;58808;59.366;17.970;2022-12-24T16:24:29;-4.30;99.90
71142;DHT22;58808;59.366;17.970;2022-12-24T16:26:56;-4.40;99.90
71142;DHT22;58808;59.366;17.970;2022-12-24T16:29:22;-4.30;99.90
71142;DHT22;58808;59.366;17.970;2022-12-24T16:31:56;-4.30;99.90
71142;DHT22;58808;59.366;17.970;2022-12-24T16:34:28;-4.30;99.90
71142;DHT22;58808;59.366;17.970;2022-12-24T16:36:54;-4.40;99.90
71142;DHT22;58808;59.366;17.970;2022-12-24T16:41:51;-4.40;99.90
71142;DHT22;58808;59.366;17.970;2022-12-24T16:44:36;-4.40;99.90
71142;DHT22;58808;59.366;17.970;2022-12-24T16:47:03;-4.40;99.90
71142;DHT22;58808;59.366;17.970;2022-12-24T16:49:30;-4.50;99.90
71142;DHT22;58808;59.366;17.970;2022-12-24T16:51:56;-4.50;99.90
71142;DHT22;58808;59.366;17.970;2022-12-24T16:54:22;-4.50;99.90
71142;DHT22;58808;59.366;17.970;2022-12-24T16:56:47;-4.50;99.90
71142;DHT22;58808;59.366;17.970;2022-12-24T16:59:16;-4.50;99.90
71142;DHT22;58808;59.366;17.970;2022-12-24T17:01:43;-4.50;99.90
71142;DHT22;58808;59.366;17.970;2022-12-24T17:04:08;-4.60;99.90
71142;DHT22;58808;59.366;17.970;2022-12-24T17:06:34;-4.60;99.90
71142;DHT22;58808;59.366;17.970;2022-12-24T17:09:00;-4.60;99.90
71142;DHT22;58808;59.366;17.970;2022-12-24T17:11:26;-4.70;99.90
71142;DHT22;58808;59.366;17.970;2022-12-24T17:13:51;-4.70;99.90
71142;DHT22;58808;59.366;17.970;2022-12-24T17:16:17;-4.70;99.90
71142;DHT22;58808;59.366;17.970;2022-12-24T17:18:43;-4.70;99.90
71142;DHT22;58808;59.366;17.970;2022-12-24T17:21:09;-4.80;99.90
71142;DHT22;58808;59.366;17.970;2022-12-24T17:23:35;-4.80;99.90
71142;DHT22;58808;59.366;17.970;2022-12-24T17:26:01;-4.80;99.90
71142;DHT22;58808;59.366;17.970;2022-12-24T17:28:27;-4.80;99.90
71142;DHT22;58808;59.366;17.970;2022-12-24T17:30:53;-4.90;99.90
71142;DHT22;58808;59.366;17.970;2022-12-24T17:33:19;-4.90;99.90
71142;DHT22;58808;59.366;17.970;2022-12-24T17:35:44;-4.90;99.90
71142;DHT22;58808;59.366;17.970;2022-12-24T17:38:12;-4.90;99.90
71142;DHT22;58808;59.366;17.970;2022-12-24T17:40:38;-4.90;99.90
71142;DHT22;58808;59.366;17.970;2022-12-24T17:43:04;-4.90;99.90
71142;DHT22;58808;59.366;17.970;2022-12-24T17:45:30;-4.90;99.90
71142;DHT22;58808;59.366;17.970;2022-12-24T17:47:55;-4.90;99.90
71142;DHT22;58808;59.366;17.970;2022-12-24T17:50:21;-4.90;99.90